createdAt,value
2022-08-23T00:02:34.558Z,24.72
2022-08-23T00:08:03.258Z,24.68
2022-08-23T00:13:47.613Z,24.66
2022-08-23T00:19:19.581Z,24.62
2022-08-23T00:24:48.655Z,24.57
2022-08-23T00:30:17.812Z,24.48
2022-08-23T00:35:47.559Z,24.49
2022-08-23T00:41:16.034Z,24.49
2022-08-23T00:47:03.511Z,24.46
2022-08-23T00:52:35.730Z,24.43
2022-08-23T00:58:04.152Z,24.38
2022-08-23T01:03:38.723Z,24.24
2022-08-23T01:09:11.216Z,24.16
2022-08-23T01:14:42.471Z,23.99
2022-08-23T01:20:12.564Z,23.85
2022-08-23T01:25:44.803Z,23.65
2022-08-23T01:31:15.398Z,23.66
2022-08-23T01:36:44.148Z,23.58
2022-08-23T01:42:14.573Z,23.46
2022-08-23T01:47:42.787Z,23.10
2022-08-23T01:53:12.057Z,23.02
2022-08-23T01:58:46.137Z,22.91
2022-08-23T02:04:15.336Z,22.73
2022-08-23T02:09:44.444Z,22.72
2022-08-23T02:15:14.155Z,22.59
2022-08-23T02:20:45.404Z,22.45
2022-08-23T02:26:14.044Z,22.45
2022-08-23T02:31:47.485Z,22.44
2022-08-23T02:37:16.033Z,22.31
2022-08-23T02:42:44.768Z,22.29
2022-08-23T02:48:15.300Z,22.30
2022-08-23T02:53:53.700Z,22.30
2022-08-23T02:59:23.569Z,22.27
2022-08-23T03:04:53.632Z,22.12
2022-08-23T03:10:22.422Z,22.14
2022-08-23T03:15:56.595Z,22.02
2022-08-23T03:21:26.001Z,21.91
2022-08-23T03:26:54.987Z,21.94
2022-08-23T03:32:25.132Z,21.90
2022-08-23T03:37:56.040Z,22.03
2022-08-23T03:43:25.310Z,22.08
2022-08-23T03:48:55.369Z,22.08
2022-08-23T03:54:26.251Z,22.09
2022-08-23T03:59:59.838Z,22.19
2022-08-23T04:05:29.953Z,22.26
2022-08-23T04:11:05.726Z,22.37
2022-08-23T04:16:37.789Z,22.48
2022-08-23T04:22:06.778Z,22.59
2022-08-23T04:27:43.388Z,22.69
2022-08-23T04:33:15.140Z,22.85
2022-08-23T04:38:46.948Z,22.85
2022-08-23T04:44:17.356Z,22.85
2022-08-23T04:49:48.100Z,23.08
2022-08-23T04:55:17.201Z,23.14
2022-08-23T05:00:52.897Z,23.20
2022-08-23T05:06:29.946Z,23.44
2022-08-23T05:11:59.178Z,23.40
2022-08-23T05:17:30.408Z,23.58
2022-08-23T05:23:01.146Z,23.76
2022-08-23T05:28:50.502Z,23.97
2022-08-23T05:34:23.011Z,24.20
2022-08-23T05:39:54.932Z,24.44
2022-08-23T05:45:23.844Z,24.60
2022-08-23T05:50:54.462Z,24.81
2022-08-23T05:56:24.413Z,25.12
2022-08-23T06:01:53.721Z,25.37
2022-08-23T06:07:24.146Z,25.80
2022-08-23T06:12:53.145Z,26.39
2022-08-23T06:18:22.537Z,28.25
2022-08-23T06:23:58.268Z,30.10
2022-08-23T06:29:26.491Z,31.17
2022-08-23T06:35:36.102Z,31.55
2022-08-23T06:41:18.278Z,31.38
2022-08-23T06:46:53.146Z,31.10
2022-08-23T06:52:21.788Z,31.53
2022-08-23T06:57:59.436Z,31.13
2022-08-23T07:03:27.901Z,32.02
2022-08-23T07:09:15.506Z,32.80
2022-08-23T07:14:45.645Z,33.51
2022-08-23T07:20:14.658Z,32.92
2022-08-23T07:25:45.466Z,33.29
2022-08-23T07:31:21.172Z,32.32
2022-08-23T07:36:51.231Z,32.45
2022-08-23T07:42:23.891Z,32.79
2022-08-23T07:47:58.218Z,31.40
2022-08-23T07:53:37.909Z,31.98
2022-08-23T07:59:09.552Z,32.73
2022-08-23T08:04:58.330Z,32.89
2022-08-23T08:10:26.896Z,33.71
2022-08-23T08:15:56.207Z,33.60
2022-08-23T08:21:30.358Z,32.40
2022-08-23T08:27:05.363Z,32.85
2022-08-23T08:32:35.054Z,32.93
2022-08-23T08:38:06.590Z,34.00
2022-08-23T08:43:40.651Z,33.64
2022-08-23T08:49:14.109Z,33.53
2022-08-23T08:54:48.221Z,33.51
2022-08-23T09:00:19.714Z,34.76
2022-08-23T09:05:52.741Z,35.07
2022-08-23T09:11:30.379Z,35.16
2022-08-23T09:17:05.540Z,35.15
2022-08-23T09:22:37.730Z,35.46
2022-08-23T09:28:17.038Z,34.12
2022-08-23T09:33:46.864Z,33.24
2022-08-23T09:39:32.474Z,33.48
2022-08-23T09:45:02.552Z,33.97
2022-08-23T09:50:30.265Z,33.57
2022-08-23T09:55:56.185Z,32.82
2022-08-23T10:01:23.885Z,33.52
2022-08-23T10:06:58.669Z,33.02
2022-08-23T10:12:22.913Z,33.20
2022-08-23T10:17:54.264Z,34.44
2022-08-23T10:23:24.904Z,34.47
2022-08-23T10:29:13.801Z,35.43
2022-08-23T10:34:55.745Z,35.37
2022-08-23T10:40:25.704Z,34.52
2022-08-23T10:45:50.565Z,35.26
2022-08-23T10:51:32.076Z,35.17
2022-08-23T10:56:58.983Z,35.18
2022-08-23T11:02:29.313Z,35.76
2022-08-23T11:08:13.106Z,35.37
2022-08-23T11:13:37.590Z,35.51
2022-08-23T11:19:01.261Z,35.84
2022-08-23T11:24:51.970Z,35.58
2022-08-23T11:30:37.297Z,34.98
2022-08-23T11:36:17.734Z,34.86
2022-08-23T11:42:03.703Z,35.45
2022-08-23T11:47:40.050Z,35.29
2022-08-23T11:53:16.959Z,34.81
2022-08-23T11:58:55.509Z,34.88
2022-08-23T12:04:34.544Z,35.43
2022-08-23T12:09:58.269Z,35.77
2022-08-23T12:15:42.595Z,35.79
2022-08-23T12:21:10.574Z,35.77
2022-08-23T12:26:40.918Z,35.92
2022-08-23T12:32:08.439Z,35.35
2022-08-23T12:37:38.403Z,35.07
2022-08-23T12:43:04.904Z,35.48
2022-08-23T12:48:32.593Z,35.52
2022-08-23T12:54:00.320Z,35.63
2022-08-23T12:59:31.763Z,35.17
2022-08-23T13:05:03.791Z,35.52
2022-08-23T13:10:29.876Z,35.80
2022-08-23T13:15:55.115Z,35.93
2022-08-23T13:21:28.241Z,35.72
2022-08-23T13:26:53.986Z,35.64
2022-08-23T13:32:28.961Z,34.90
2022-08-23T13:37:53.873Z,35.07
2022-08-23T13:43:23.390Z,35.27
2022-08-23T13:48:49.749Z,34.45
2022-08-23T13:54:16.327Z,35.31
2022-08-23T13:59:42.382Z,35.20
2022-08-23T14:05:10.074Z,35.29
2022-08-23T14:10:34.493Z,35.15
2022-08-23T14:21:47.882Z,35.01
2022-08-23T14:27:12.459Z,35.30
2022-08-23T14:32:38.709Z,35.12
2022-08-23T14:38:04.025Z,34.93
2022-08-23T14:43:31.775Z,34.96
2022-08-23T14:48:57.357Z,35.02
2022-08-23T14:54:22.822Z,34.84
2022-08-23T14:59:46.688Z,34.41
2022-08-23T15:05:13.565Z,34.31
2022-08-23T15:12:57.318Z,34.27
2022-08-23T15:16:23.250Z,34.11
2022-08-23T15:21:48.726Z,33.91
2022-08-23T15:27:13.594Z,33.69
2022-08-23T15:32:38.133Z,33.41
2022-08-23T15:38:05.507Z,33.23
2022-08-23T15:43:34.072Z,32.94
2022-08-23T15:49:04.885Z,33.05
2022-08-23T15:54:30.549Z,33.04
2022-08-23T15:59:55.567Z,33.03
2022-08-23T16:05:20.181Z,32.74
2022-08-23T16:10:46.399Z,32.47
2022-08-23T16:16:15.316Z,32.38
2022-08-23T16:21:40.066Z,32.08
2022-08-23T16:27:08.167Z,31.77
2022-08-23T16:32:32.486Z,31.57
2022-08-23T16:37:57.241Z,31.50
2022-08-23T16:43:24.146Z,30.97
2022-08-23T16:48:47.831Z,30.91
2022-08-23T16:54:11.889Z,30.90
2022-08-23T16:59:40.521Z,30.94
2022-08-23T17:05:07.069Z,30.90
2022-08-23T17:10:31.069Z,30.71
2022-08-23T17:15:56.742Z,30.56
2022-08-23T17:21:20.151Z,30.39
2022-08-23T17:26:43.924Z,30.37
2022-08-23T17:32:09.458Z,29.95
2022-08-23T17:37:35.763Z,29.95
2022-08-23T17:43:03.470Z,29.74
2022-08-23T17:48:30.201Z,29.54
2022-08-23T17:53:54.614Z,29.59
2022-08-23T17:59:18.558Z,29.54
2022-08-23T18:04:44.502Z,29.35
2022-08-23T18:10:09.634Z,28.97
2022-08-23T18:15:34.992Z,28.99
2022-08-23T18:21:04.610Z,28.76
2022-08-23T18:26:57.731Z,28.40
2022-08-23T18:32:23.185Z,28.25
2022-08-23T18:37:48.368Z,27.93
2022-08-23T18:43:13.034Z,27.92
2022-08-23T18:48:40.940Z,27.69
2022-08-23T18:54:07.221Z,27.83
2022-08-23T18:59:31.937Z,27.63
2022-08-23T19:04:56.119Z,27.64
2022-08-23T19:10:22.105Z,27.37
2022-08-23T19:15:47.829Z,27.48
2022-08-23T19:21:14.445Z,27.20
2022-08-23T19:26:40.484Z,26.97
2022-08-23T19:32:05.372Z,26.94
2022-08-23T19:37:30.014Z,26.87
2022-08-23T19:42:55.742Z,26.78
2022-08-23T19:48:21.354Z,26.68
2022-08-23T19:54:04.611Z,26.69
2022-08-23T19:59:32.989Z,26.80
2022-08-23T20:04:57.492Z,26.88
2022-08-23T20:10:22.455Z,26.53
2022-08-23T20:15:48.234Z,26.35
2022-08-23T20:21:12.740Z,26.18
2022-08-23T20:26:43.491Z,26.15
2022-08-23T20:32:10.578Z,26.09
2022-08-23T20:37:36.422Z,26.10
2022-08-23T20:43:00.450Z,26.01
2022-08-23T20:48:26.243Z,25.90
2022-08-23T20:53:51.002Z,25.91
2022-08-23T20:59:16.933Z,25.85
2022-08-23T21:04:42.433Z,25.83
2022-08-23T21:10:07.394Z,25.74
2022-08-23T21:15:31.579Z,25.66
2022-08-23T21:20:58.290Z,25.61
2022-08-23T21:26:23.438Z,25.53
2022-08-23T21:31:48.752Z,25.47
2022-08-23T21:37:14.387Z,25.39
2022-08-23T21:42:38.767Z,25.31
2022-08-23T21:48:02.997Z,25.23
2022-08-23T21:53:31.028Z,25.15
2022-08-23T21:58:58.371Z,25.13
2022-08-23T22:04:23.053Z,25.01
2022-08-23T22:09:51.379Z,24.99
2022-08-23T22:15:16.553Z,24.89
2022-08-23T22:20:41.628Z,24.77
2022-08-23T22:26:08.331Z,24.70
2022-08-23T22:31:35.363Z,24.60
2022-08-23T22:37:00.013Z,24.51
2022-08-23T22:42:25.890Z,24.42
2022-08-23T22:47:50.546Z,24.37
2022-08-23T22:53:16.271Z,24.24
2022-08-23T22:58:43.260Z,24.23
2022-08-23T23:04:10.913Z,24.14
2022-08-23T23:09:36.665Z,24.17
2022-08-23T23:15:02.416Z,24.08
2022-08-23T23:20:39.898Z,23.85
2022-08-23T23:26:08.175Z,23.85
2022-08-23T23:31:33.976Z,23.90
2022-08-23T23:36:57.982Z,23.86
2022-08-23T23:42:21.968Z,23.87
2022-08-23T23:47:46.989Z,23.88
2022-08-23T23:53:11.160Z,23.84
2022-08-23T23:58:37.370Z,23.70
